Time;durP1;ratioP1;P1;durP2;ratioP2;P2;SDS_P1;SDS_P2;PMS_P1;PMS_P2;Temp;Humidity;BMP_temperature;BMP_pressure;BME280_temperature;BME280_humidity;BME280_pressure;Samples;Min_cycle;Max_cycle;Signal;HPM_P1;HPM_P2
2021/11/26 00:03:09;;;;;;;44.40;24.90;;;;;;;2.60;74.35;98806.41;230273;1191;142784;-67
2021/11/26 00:08:14;;;;;;;45.60;25.70;;;;;;;2.58;74.42;98812.73;229970;1192;139659;-67
2021/11/26 00:13:19;;;;;;;43.20;24.80;;;;;;;2.55;74.52;98801.88;229398;1193;140819;-71
2021/11/26 00:18:24;;;;;;;42.80;25.20;;;;;;;2.53;74.69;98785.82;230438;1192;140875;-68
2021/11/26 00:23:29;;;;;;;45.90;22.40;;;;;;;2.53;74.35;98786.27;229249;1192;141755;-70
2021/11/26 00:28:34;;;;;;;52.50;27.70;;;;;;;2.56;74.49;98780.11;228623;1192;139616;-68
2021/11/26 00:33:42;;;;;;;45.60;25.40;;;;;;;2.60;74.65;98776.86;230874;1192;139523;-71
2021/11/26 00:38:47;;;;;;;51.80;25.20;;;;;;;2.62;74.58;98781.64;230815;1192;142240;-68
2021/11/26 00:44:06;;;;;;;46.60;24.40;;;;;;;2.62;74.48;98776.41;229991;1192;140791;-70
2021/11/26 00:49:36;;;;;;;41.70;23.10;;;;;;;2.61;74.36;98782.04;230058;1193;139879;-72
2021/11/26 00:54:41;;;;;;;41.10;21.50;;;;;;;2.59;74.44;98790.58;229673;1192;140111;-73
2021/11/26 00:59:45;;;;;;;44.70;24.30;;;;;;;2.62;74.31;98789.73;229375;1192;140219;-68
2021/11/26 01:05:02;;;;;;;43.10;24.20;;;;;;;2.62;74.22;98792.11;228962;1193;142308;-68
2021/11/26 01:10:28;;;;;;;44.90;26.00;;;;;;;2.59;74.38;98793.98;228917;1192;139433;-71
2021/11/26 01:15:33;;;;;;;25.80;16.40;;;;;;;2.58;74.63;98786.86;229017;1193;140288;-72
2021/11/26 01:20:37;;;;;;;45.40;23.70;;;;;;;2.58;74.49;98774.16;229217;1193;139096;-72
2021/11/26 01:25:49;;;;;;;42.30;24.90;;;;;;;2.62;74.40;98766.42;229245;1193;139730;-69
2021/11/26 01:30:53;;;;;;;38.30;23.40;;;;;;;2.62;74.27;98744.48;228165;1192;139207;-74
2021/11/26 01:35:59;;;;;;;43.90;28.30;;;;;;;2.59;74.39;98734.64;227883;1187;140841;-71
2021/11/26 01:41:04;;;;;;;40.90;24.00;;;;;;;2.57;74.25;98734.41;230144;1192;139416;-72
2021/11/26 01:46:13;;;;;;;44.60;23.30;;;;;;;2.54;74.26;98736.27;228959;1193;140052;-73
2021/11/26 01:51:18;;;;;;;39.30;25.10;;;;;;;2.58;74.05;98727.27;230382;1192;140436;-68
2021/11/26 01:56:25;;;;;;;45.40;27.00;;;;;;;2.60;74.45;98726.23;228511;1192;139155;-69
2021/11/26 02:01:29;;;;;;;60.50;32.50;;;;;;;2.62;74.46;98725.02;229834;1192;140588;-73
2021/11/26 02:06:33;;;;;;;41.30;24.50;;;;;;;2.55;74.28;98726.23;228549;1192;140857;-72
2021/11/26 02:11:38;;;;;;;40.60;23.80;;;;;;;2.51;74.28;98729.97;230302;1192;140511;-72
2021/11/26 02:16:44;;;;;;;40.30;25.30;;;;;;;2.53;74.24;98729.56;229696;1192;140433;-71
2021/11/26 02:21:47;;;;;;;42.00;24.10;;;;;;;2.55;74.32;98724.86;229326;1192;142015;-73
2021/11/26 02:26:52;;;;;;;37.80;22.60;;;;;;;2.57;74.45;98712.67;229134;1192;140083;-72
2021/11/26 02:31:56;;;;;;;40.10;22.10;;;;;;;2.53;74.32;98700.27;230541;1192;139844;-73
2021/11/26 02:37:00;;;;;;;41.30;24.70;;;;;;;2.54;74.17;98688.52;230910;1192;140123;-69
2021/11/26 02:42:04;;;;;;;39.10;25.00;;;;;;;2.56;74.16;98681.64;231013;1192;141068;-68
2021/11/26 02:47:08;;;;;;;42.60;23.30;;;;;;;2.55;74.23;98676.82;230007;1192;142175;-71
2021/11/26 02:52:13;;;;;;;34.70;21.80;;;;;;;2.55;74.19;98677.59;228649;1192;139731;-73
2021/11/26 02:57:18;;;;;;;37.70;20.70;;;;;;;2.50;74.35;98657.33;229160;1192;140011;-70
2021/11/26 03:02:22;;;;;;;45.40;22.20;;;;;;;2.47;74.28;98652.85;230409;1192;141354;-70
2021/11/26 03:07:28;;;;;;;41.50;24.00;;;;;;;2.50;74.25;98650.90;229288;1192;141857;-74
2021/11/26 03:12:35;;;;;;;36.20;22.00;;;;;;;2.49;74.26;98648.03;230110;1192;139889;-72
2021/11/26 03:17:39;;;;;;;;;;;;;;;2.49;74.35;98643.17;230104;1192;142062;-72
2021/11/26 03:22:47;;;;;;;38.70;21.30;;;;;;;2.45;74.51;98652.50;229986;1192;127081;-70
2021/11/26 03:27:52;;;;;;;45.70;22.10;;;;;;;2.41;74.31;98657.71;228823;1192;141139;-70
2021/11/26 03:32:57;;;;;;;39.20;22.50;;;;;;;2.41;74.53;98668.44;229714;1192;141503;-68
2021/11/26 03:38:17;;;;;;;61.40;27.10;;;;;;;2.42;74.51;98672.84;229007;1192;140446;-69
2021/11/26 03:43:46;;;;;;;52.40;24.30;;;;;;;2.42;74.74;98656.17;229579;1192;139331;-71
2021/11/26 03:48:52;;;;;;;42.40;22.70;;;;;;;2.42;74.63;98659.41;228161;1192;140078;-73
2021/11/26 03:53:57;;;;;;;39.20;23.70;;;;;;;2.39;74.83;98650.64;228809;1192;140861;-71
2021/11/26 03:59:06;;;;;;;42.30;22.40;;;;;;;2.37;74.62;98643.48;229333;1192;140735;-69
2021/11/26 04:04:11;;;;;;;41.70;25.90;;;;;;;2.41;74.70;98647.39;228555;1192;140262;-72
2021/11/26 04:09:15;;;;;;;49.50;24.80;;;;;;;2.45;74.90;98647.56;228586;1192;140296;-71
2021/11/26 04:14:19;;;;;;;46.50;25.60;;;;;;;2.47;74.81;98641.92;228452;1192;222210;-71
2021/11/26 04:19:25;;;;;;;44.70;25.20;;;;;;;2.48;74.84;98639.98;229651;1193;140125;-71
2021/11/26 04:24:28;;;;;;;40.40;23.00;;;;;;;2.45;74.83;98634.86;230069;1192;139529;-69
2021/11/26 04:29:36;;;;;;;43.50;23.80;;;;;;;2.44;74.82;98625.98;229845;1192;138873;-69
2021/11/26 04:34:42;;;;;;;42.00;22.70;;;;;;;2.43;74.74;98613.96;230107;1192;140821;-71
2021/11/26 04:39:45;;;;;;;41.10;26.30;;;;;;;2.50;74.87;98606.51;230780;1192;140239;-70
2021/11/26 04:44:48;;;;;;;41.70;25.10;;;;;;;2.54;74.86;98600.02;230320;1193;140040;-71
2021/11/26 04:49:52;;;;;;;44.40;23.80;;;;;;;2.56;74.70;98597.05;229326;1192;140136;-71
2021/11/26 04:54:57;;;;;;;44.10;26.00;;;;;;;2.56;74.84;98591.79;230286;1192;140465;-70
2021/11/26 05:00:28;;;;;;;39.10;21.80;;;;;;;2.56;74.94;98586.56;231163;1192;139412;-70
2021/11/26 05:05:32;;;;;;;45.70;23.80;;;;;;;2.55;74.84;98596.33;229340;1192;139917;-68
2021/11/26 05:10:37;;;;;;;44.80;23.80;;;;;;;2.55;74.75;98590.86;230291;1192;139369;-71
2021/11/26 05:15:42;;;;;;;49.90;24.80;;;;;;;2.60;74.71;98587.80;230534;1192;139917;-69
2021/11/26 05:20:47;;;;;;;45.40;25.50;;;;;;;2.63;74.76;98598.60;229084;1192;139852;-70
2021/11/26 05:25:54;;;;;;;51.20;24.60;;;;;;;2.63;75.08;98603.08;228909;1192;139590;-71
2021/11/26 05:31:00;;;;;;;46.40;24.50;;;;;;;2.62;75.02;98602.15;229242;1184;138620;-72
2021/11/26 05:36:09;;;;;;;41.10;23.00;;;;;;;2.60;75.14;98605.04;229602;1192;139564;-70
2021/11/26 05:41:13;;;;;;;48.40;24.90;;;;;;;2.55;75.05;98599.11;228015;1192;140770;-69
2021/11/26 05:46:17;;;;;;;54.40;27.30;;;;;;;2.52;75.02;98593.79;229968;1192;140053;-70
2021/11/26 05:51:21;;;;;;;39.10;23.30;;;;;;;2.55;74.90;98592.31;228743;1192;139923;-69
2021/11/26 05:56:25;;;;;;;45.80;23.50;;;;;;;2.56;75.08;98591.05;230594;1192;140423;-71
2021/11/26 06:01:30;;;;;;;46.70;26.40;;;;;;;2.57;75.09;98582.84;229523;1192;138999;-72
2021/11/26 06:06:56;;;;;;;47.70;26.40;;;;;;;2.60;75.30;98579.17;228241;1177;139004;-70
2021/11/26 06:12:01;;;;;;;44.30;24.50;;;;;;;2.58;75.20;98574.54;230054;1191;138897;-73
2021/11/26 06:17:06;;;;;;;45.40;24.10;;;;;;;2.55;75.26;98569.28;229965;1192;138917;-71
2021/11/26 06:22:11;;;;;;;45.30;21.80;;;;;;;2.56;75.43;98574.99;230419;1192;139903;-70
2021/11/26 06:27:15;;;;;;;44.20;26.00;;;;;;;2.60;75.05;98574.89;229823;1192;209492;-71
2021/11/26 06:32:23;;;;;;;44.60;27.00;;;;;;;2.65;75.07;98575.52;230275;1192;139818;-71
2021/11/26 06:37:28;;;;;;;42.90;24.60;;;;;;;2.68;75.18;98581.20;228760;1192;141036;-71
2021/11/26 06:42:33;;;;;;;45.00;26.30;;;;;;;2.68;75.25;98583.11;229882;1192;139781;-71
2021/11/26 06:47:38;;;;;;;41.30;24.70;;;;;;;2.67;75.20;98582.22;230631;1192;138915;-71
2021/11/26 06:52:42;;;;;;;46.30;24.40;;;;;;;2.64;75.08;98576.13;230546;1192;139361;-73
2021/11/26 06:57:50;;;;;;;45.80;25.60;;;;;;;2.62;75.04;98579.65;229383;1192;139235;-69
2021/11/26 07:02:55;;;;;;;44.90;25.70;;;;;;;2.67;75.05;98564.94;229564;1192;143662;-69
2021/11/26 07:07:59;;;;;;;43.50;23.40;;;;;;;2.70;74.91;98562.25;228604;1192;139491;-69
2021/11/26 07:13:46;;;;;;;42.30;25.20;;;;;;;2.74;75.27;98557.08;228634;1192;139510;-70
2021/11/26 07:19:11;;;;;;;44.00;25.40;;;;;;;2.76;75.15;98546.66;229360;1192;139767;-69
2021/11/26 07:24:16;;;;;;;78.00;41.40;;;;;;;2.77;75.38;98555.54;229339;1192;141582;-70
2021/11/26 07:29:24;;;;;;;49.70;26.80;;;;;;;2.76;75.32;98558.99;228619;1192;139449;-70
2021/11/26 07:34:29;;;;;;;47.40;24.60;;;;;;;2.76;75.17;98556.56;229291;1192;139799;-70
2021/11/26 07:39:35;;;;;;;47.80;26.90;;;;;;;2.82;75.29;98544.29;228363;1192;140249;-69
2021/11/26 07:44:41;;;;;;;45.30;25.80;;;;;;;2.86;75.31;98550.02;229100;1192;142568;-72
2021/11/26 07:49:46;;;;;;;50.70;27.80;;;;;;;2.92;75.44;98551.64;229213;1192;139153;-70
2021/11/26 07:54:50;;;;;;;51.40;29.70;;;;;;;2.96;75.33;98548.04;229787;1192;140546;-70
2021/11/26 07:59:54;;;;;;;51.10;27.90;;;;;;;2.99;75.38;98542.60;229241;1193;139517;-70
2021/11/26 08:04:58;;;;;;;47.50;25.20;;;;;;;3.04;75.34;98548.31;229274;1192;140945;-70
2021/11/26 08:10:09;;;;;;;51.90;27.80;;;;;;;3.12;75.06;98547.70;228675;1192;141136;-70
2021/11/26 08:15:17;;;;;;;57.10;28.90;;;;;;;3.20;75.28;98541.92;229067;1193;141254;-72
2021/11/26 08:20:26;;;;;;;45.90;28.90;;;;;;;3.25;75.34;98541.45;228686;1192;151800;-72
2021/11/26 08:25:31;;;;;;;56.90;28.20;;;;;;;3.22;75.16;98536.08;230401;1192;139988;-72
2021/11/26 08:30:36;;;;;;;51.00;26.60;;;;;;;3.20;75.15;98530.49;229906;1191;140595;-72
2021/11/26 08:35:40;;;;;;;52.10;28.10;;;;;;;3.19;75.06;98526.50;230516;1192;140137;-71
2021/11/26 08:40:45;;;;;;;59.10;26.20;;;;;;;3.21;74.98;98522.35;230326;1192;139739;-72
2021/11/26 08:45:49;;;;;;;55.50;33.60;;;;;;;3.31;74.84;98526.10;230851;1192;139444;-71
2021/11/26 08:50:57;;;;;;;47.50;27.20;;;;;;;3.43;74.81;98532.17;230806;1192;140897;-71
2021/11/26 08:56:01;;;;;;;;;;;;;;;3.50;74.79;98533.98;231078;1192;139136;-72
2021/11/26 09:01:07;;;;;;;50.40;24.60;;;;;;;3.54;74.91;98529.94;231542;1192;126464;-71
2021/11/26 09:06:14;;;;;;;49.10;29.50;;;;;;;3.57;74.56;98529.20;229998;1192;141232;-71
2021/11/26 09:11:21;;;;;;;47.20;24.20;;;;;;;3.56;74.63;98527.06;229757;1192;140769;-70
2021/11/26 09:17:09;;;;;;;45.10;25.60;;;;;;;3.55;74.60;98519.22;230059;1192;139238;-71
2021/11/26 09:22:18;;;;;;;42.20;25.80;;;;;;;3.58;74.83;98507.23;229779;1192;140922;-70
2021/11/26 09:27:23;;;;;;;48.20;26.00;;;;;;;3.62;75.08;98503.09;229022;1193;139907;-70
2021/11/26 09:32:31;;;;;;;52.10;26.50;;;;;;;3.66;74.99;98495.58;229455;1192;139965;-69
2021/11/26 09:37:40;;;;;;;50.20;26.80;;;;;;;3.75;74.83;98476.77;228861;1192;139283;-69
2021/11/26 09:42:45;;;;;;;51.60;24.90;;;;;;;3.82;74.86;98462.27;227733;1193;139182;-70
2021/11/26 09:48:14;;;;;;;48.60;26.90;;;;;;;3.92;74.95;98451.83;229562;1192;140307;-69
2021/11/26 09:53:21;;;;;;;49.90;26.10;;;;;;;4.01;75.19;98444.52;229404;1192;140802;-68
2021/11/26 09:58:27;;;;;;;;;;;;;;;4.09;75.15;98442.26;229302;1193;139951;-71
2021/11/26 10:03:47;;;;;;;52.20;25.40;;;;;;;4.12;74.84;98437.75;229178;1192;126843;-71
2021/11/26 10:09:41;;;;;;;51.70;28.60;;;;;;;4.19;74.88;98429.19;229016;1192;140984;-70
2021/11/26 10:14:57;;;;;;;45.40;26.20;;;;;;;4.21;74.68;98424.45;230175;1192;139895;-71
2021/11/26 10:20:12;;;;;;;58.50;29.80;;;;;;;4.24;74.84;98417.44;229442;1192;139936;-70
2021/11/26 10:25:20;;;;;;;34.20;20.40;;;;;;;4.28;74.75;98402.75;229759;1192;140565;-71
2021/11/26 10:30:38;;;;;;;44.60;23.00;;;;;;;4.26;74.37;98391.64;230394;1192;139341;-70
2021/11/26 10:35:52;;;;;;;43.20;24.80;;;;;;;4.31;74.34;98377.33;230685;1192;139797;-69
2021/11/26 10:41:03;;;;;;;41.20;20.70;;;;;;;4.39;74.39;98382.36;230651;1192;139387;-69
2021/11/26 10:57:43;;;;;;;43.20;21.80;;;;;;;4.37;74.20;98359.55;230947;1192;139797;-70
2021/11/26 11:03:05;;;;;;;51.10;26.30;;;;;;;4.39;74.38;98356.02;230185;1192;141027;-70
2021/11/26 11:08:41;;;;;;;49.60;23.10;;;;;;;4.35;74.13;98351.05;230044;1192;140580;-71
2021/11/26 11:14:06;;;;;;;46.30;23.20;;;;;;;4.29;74.31;98338.90;229127;1192;141044;-68
2021/11/26 11:19:18;;;;;;;50.30;26.10;;;;;;;4.22;74.30;98323.92;228374;1193;139691;-70
2021/11/26 11:24:28;;;;;;;48.70;26.70;;;;;;;4.28;74.56;98317.73;230248;1192;141625;-72
2021/11/26 11:29:53;;;;;;;48.20;26.50;;;;;;;4.30;74.61;98316.54;230021;1192;139106;-71
2021/11/26 11:35:44;;;;;;;53.90;29.60;;;;;;;4.27;74.72;98302.64;228881;1193;139557;-72
2021/11/26 11:40:59;;;;;;;65.10;33.30;;;;;;;4.30;74.85;98293.38;228771;1192;139644;-71
2021/11/26 11:46:10;;;;;;;63.30;32.00;;;;;;;4.30;74.58;98282.05;229043;1192;140569;-71
2021/11/26 11:51:56;;;;;;;;;;;;;;;;;;;;;
2021/11/26 11:57:02;;;;;;;65.60;30.20;;;;;;;4.27;75.08;98270.85;229805;1192;139628;-69
2021/11/26 12:02:26;;;;;;;63.70;29.10;;;;;;;4.22;74.72;98265.52;229321;1192;139938;-71
2021/11/26 12:07:40;;;;;;;70.30;32.40;;;;;;;4.17;74.77;98260.59;228435;1192;139802;-71
2021/11/26 12:12:57;;;;;;;65.80;34.50;;;;;;;4.18;74.87;98250.55;229377;1192;140690;-71
2021/11/26 12:18:07;;;;;;;58.60;31.60;;;;;;;4.20;74.97;98239.52;229801;1192;138980;-72
2021/11/26 12:23:46;;;;;;;;;;;;;;;;;;;;;
2021/11/26 12:28:57;;;;;;;69.90;33.10;;;;;;;4.25;74.66;98219.39;228891;1192;141082;-69
2021/11/26 12:34:38;;;;;;;76.10;34.70;;;;;;;4.29;74.78;98200.41;229924;1192;140146;-72
2021/11/26 12:39:43;;;;;;;60.20;32.90;;;;;;;4.30;74.73;98193.25;229684;1192;139988;-71
2021/11/26 12:45:52;;;;;;;;;;;;;;;;;;;;;
2021/11/26 12:51:06;;;;;;;68.90;36.70;;;;;;;4.25;74.76;98179.45;230605;1192;140352;-71
2021/11/26 12:56:36;;;;;;;71.30;34.50;;;;;;;4.24;74.37;98169.09;230869;1192;139814;-74
2021/11/26 13:01:50;;;;;;;69.90;38.00;;;;;;;4.26;74.40;98168.13;230294;1192;230472;-72
2021/11/26 13:07:30;;;;;;;66.50;35.70;;;;;;;4.26;74.52;98165.96;230869;1192;139676;-75
2021/11/26 13:12:49;;;;;;;61.80;30.20;;;;;;;4.25;74.47;98152.17;230412;1192;140103;-74
2021/11/26 13:17:58;;;;;;;74.00;35.60;;;;;;;4.20;74.63;98145.59;229051;1192;140060;-72
2021/11/26 13:23:09;;;;;;;70.20;35.90;;;;;;;4.15;74.54;98133.55;229016;1187;223633;-72
2021/11/26 13:28:22;;;;;;;63.10;33.30;;;;;;;4.12;74.48;98116.97;230142;1191;141676;-72
2021/11/26 13:34:08;;;;;;;44.30;26.50;;;;;;;4.04;74.68;98117.92;229904;1192;139966;-71
2021/11/26 13:39:15;;;;;;;60.30;29.40;;;;;;;3.97;74.65;98107.55;229023;1192;138785;-71
2021/11/26 13:44:25;;;;;;;68.50;35.60;;;;;;;3.92;74.57;98101.74;229477;1192;141249;-70
2021/11/26 13:49:29;;;;;;;70.50;38.30;;;;;;;3.93;74.76;98090.29;229816;1192;140950;-71
2021/11/26 13:54:47;;;;;;;67.30;34.40;;;;;;;3.93;74.91;98079.74;228021;1193;140317;-70
2021/11/26 14:00:03;;;;;;;69.60;36.00;;;;;;;3.90;74.80;98083.98;230069;1192;139193;-72
2021/11/26 14:05:07;;;;;;;63.30;35.50;;;;;;;3.83;74.93;98078.67;228674;1192;138833;-71
2021/11/26 14:10:11;;;;;;;49.00;27.80;;;;;;;3.76;75.06;98075.67;228834;1192;140936;-69
2021/11/26 14:15:24;;;;;;;67.70;35.90;;;;;;;3.70;75.10;98077.11;229657;1192;140916;-69
2021/11/26 14:20:29;;;;;;;82.30;39.10;;;;;;;3.71;75.01;98072.39;229854;1192;140266;-69
2021/11/26 14:25:32;;;;;;;67.30;35.50;;;;;;;3.67;75.05;98068.10;230023;1192;142033;-70
2021/11/26 14:30:36;;;;;;;71.20;37.50;;;;;;;3.64;75.45;98056.09;229542;1192;138823;-72
2021/11/26 14:35:51;;;;;;;78.80;36.20;;;;;;;3.64;75.58;98049.14;230233;1192;139952;-69
2021/11/26 14:41:01;;;;;;;76.60;33.70;;;;;;;3.65;75.36;98045.31;230188;1192;138802;-70
2021/11/26 14:46:09;;;;;;;74.90;35.60;;;;;;;3.70;75.32;98041.96;230254;1192;139721;-69
2021/11/26 14:51:16;;;;;;;;;;;;;;;3.71;75.43;98045.80;230027;1192;140618;-71
2021/11/26 14:56:50;;;;;;;66.70;33.80;;;;;;;3.67;75.74;98045.81;230915;1192;126110;-74
2021/11/26 15:01:54;;;;;;;72.80;36.50;;;;;;;3.67;75.67;98045.43;230889;1191;140072;-76
2021/11/26 15:07:01;;;;;;;68.70;36.10;;;;;;;3.60;75.73;98040.79;230571;1192;140842;-73
2021/11/26 15:12:06;;;;;;;75.70;33.40;;;;;;;3.54;75.77;98034.01;229466;1192;140859;-71
2021/11/26 15:17:16;;;;;;;68.70;37.10;;;;;;;3.57;75.74;98037.08;229937;1192;141208;-70
2021/11/26 15:22:22;;;;;;;66.50;37.50;;;;;;;3.57;75.86;98032.49;229611;1192;140260;-71
2021/11/26 15:27:26;;;;;;;63.70;33.30;;;;;;;3.53;75.89;98025.27;229924;1192;139183;-71
2021/11/26 15:32:30;;;;;;;70.70;36.30;;;;;;;3.50;75.84;98015.16;229808;1191;139959;-67
2021/11/26 15:37:41;;;;;;;63.20;33.80;;;;;;;3.48;76.03;98014.26;229187;1192;138857;-69
2021/11/26 15:42:45;;;;;;;67.40;33.40;;;;;;;3.42;75.98;98008.80;229008;1193;139805;-71
2021/11/26 15:47:58;;;;;;;71.30;38.30;;;;;;;3.38;75.83;98001.20;229799;1187;141491;-71
2021/11/26 15:53:03;;;;;;;73.80;39.00;;;;;;;3.34;76.08;98002.13;228480;1192;141077;-70
2021/11/26 15:58:11;;;;;;;67.80;34.20;;;;;;;3.26;76.21;97996.79;229322;1192;138922;-71
2021/11/26 16:03:22;;;;;;;51.90;32.00;;;;;;;3.18;76.44;97990.21;228639;1192;141167;-70
2021/11/26 16:08:51;;;;;;;73.00;36.60;;;;;;;3.07;76.18;97986.19;228800;1193;139170;-69
2021/11/26 16:13:55;;;;;;;;;;;;;;;3.00;76.31;97977.98;228452;1193;143099;-69
2021/11/26 16:19:00;;;;;;;63.70;33.10;;;;;;;2.90;76.65;97971.48;229036;1192;126591;-71
2021/11/26 16:24:05;;;;;;;68.20;36.40;;;;;;;2.81;76.59;97966.54;230120;1192;140580;-71
2021/11/26 16:29:10;;;;;;;66.60;37.40;;;;;;;2.74;76.89;97963.00;230287;1192;140248;-76
2021/11/26 16:39:29;;;;;;;81.60;38.80;;;;;;;2.72;77.54;97944.65;229476;1192;140401;-71
2021/11/26 16:44:42;;;;;;;78.90;40.90;;;;;;;2.78;77.33;97934.53;229311;1192;140123;-69
2021/11/26 16:49:47;;;;;;;160.60;79.40;;;;;;;2.86;77.51;97931.35;230109;1191;140128;-69
2021/11/26 16:54:53;;;;;;;95.80;47.50;;;;;;;2.84;77.47;97926.30;231243;1190;140598;-69
2021/11/26 16:59:58;;;;;;;65.00;37.10;;;;;;;2.81;77.67;97915.17;229879;1191;139770;-68
2021/11/26 17:05:05;;;;;;;74.80;34.80;;;;;;;2.71;77.41;97899.91;231080;1190;139298;-68
2021/11/26 17:10:11;;;;;;;71.60;36.30;;;;;;;2.64;77.42;97888.02;231197;1190;140235;-68
2021/11/26 17:15:16;;;;;;;76.10;38.20;;;;;;;2.59;77.56;97881.60;231099;1190;140031;-74
2021/11/26 17:20:22;;;;;;;64.20;35.50;;;;;;;2.52;77.73;97872.52;229415;1192;139095;-70
2021/11/26 17:25:28;;;;;;;76.40;36.60;;;;;;;2.43;77.81;97857.44;229359;1191;140092;-71
2021/11/26 17:30:34;;;;;;;75.30;36.40;;;;;;;2.39;77.90;97846.88;229911;1192;139422;-70
2021/11/26 17:35:42;;;;;;;76.50;39.60;;;;;;;2.34;78.14;97838.01;230497;1191;140644;-73
2021/11/26 17:40:49;;;;;;;75.50;40.80;;;;;;;2.29;78.42;97834.25;229421;1190;139289;-71
2021/11/26 17:45:55;;;;;;;71.90;33.40;;;;;;;2.23;78.24;97822.90;229081;1192;139937;-68
2021/11/26 17:51:00;;;;;;;72.20;35.10;;;;;;;2.18;78.31;97814.36;229691;1192;139167;-72
2021/11/26 17:56:07;;;;;;;72.10;37.20;;;;;;;2.12;78.48;97808.41;228948;1192;139938;-68
2021/11/26 18:01:12;;;;;;;66.10;32.50;;;;;;;2.06;78.38;97801.27;229156;1192;139804;-70
2021/11/26 18:06:23;;;;;;;61.10;30.10;;;;;;;1.95;78.72;97796.07;229662;1192;234108;-71
2021/11/26 18:12:02;;;;;;;76.00;35.30;;;;;;;1.93;78.60;97790.36;230056;1192;140683;-69
2021/11/26 18:17:02;;;;;;;65.10;36.90;;;;;;;1.93;78.81;97782.15;229627;1192;141203;-68
2021/11/26 18:22:27;;;;;;;73.40;35.40;;;;;;;1.89;78.72;97775.66;229800;1192;138938;-68
2021/11/26 18:27:36;;;;;;;71.50;30.70;;;;;;;1.85;78.69;97769.98;229714;1192;139717;-68
2021/11/26 18:32:41;;;;;;;69.30;34.00;;;;;;;1.87;78.57;97769.23;229775;1192;140451;-67
2021/11/26 18:37:50;;;;;;;71.50;35.80;;;;;;;1.85;78.84;97763.19;230274;1191;139320;-71
2021/11/26 18:42:56;;;;;;;64.50;35.30;;;;;;;1.85;78.93;97763.20;229282;1192;139912;-71
2021/11/26 18:48:01;;;;;;;58.20;30.20;;;;;;;1.80;78.96;97754.05;229963;1192;138989;-73
2021/11/26 18:53:05;;;;;;;64.20;27.70;;;;;;;1.71;78.88;97753.58;230191;1192;139681;-70
2021/11/26 18:58:19;;;;;;;52.30;26.70;;;;;;;1.67;78.73;97748.98;229486;1192;234576;-68
2021/11/26 19:03:24;;;;;;;53.60;28.90;;;;;;;1.66;78.86;97744.95;230740;1191;141059;-68
2021/11/26 19:08:29;;;;;;;45.50;26.10;;;;;;;1.62;78.92;97744.58;231163;1191;139329;-69
2021/11/26 19:13:34;;;;;;;44.50;21.90;;;;;;;1.56;79.16;97742.60;231149;1191;139747;-70
2021/11/26 19:18:39;;;;;;;42.30;20.50;;;;;;;1.51;78.82;97741.77;230906;1191;140099;-68
2021/11/26 19:23:44;;;;;;;45.70;24.10;;;;;;;1.51;78.94;97735.84;230868;1191;139923;-70
2021/11/26 19:28:49;;;;;;;41.60;26.20;;;;;;;1.52;78.85;97735.21;230276;1191;140234;-68
2021/11/26 19:33:55;;;;;;;41.20;23.10;;;;;;;1.51;79.07;97729.58;231165;1192;140172;-71
2021/11/26 19:39:04;;;;;;;43.20;22.90;;;;;;;1.46;79.27;97727.34;229952;1192;139389;-69
2021/11/26 19:44:12;;;;;;;41.00;21.30;;;;;;;1.41;79.30;97719.29;229556;1192;139520;-67
2021/11/26 19:49:16;;;;;;;39.90;22.10;;;;;;;1.41;79.39;97715.34;230838;1191;140375;-70
2021/11/26 19:54:24;;;;;;;46.60;26.20;;;;;;;1.39;79.34;97711.52;229891;1192;141974;-71
2021/11/26 19:59:32;;;;;;;44.60;23.90;;;;;;;1.38;79.61;97701.73;228891;1192;139701;-67
2021/11/26 20:04:38;;;;;;;39.00;22.80;;;;;;;1.34;80.00;97688.83;229734;1192;140555;-69
2021/11/26 20:09:44;;;;;;;43.50;21.80;;;;;;;1.29;79.74;97680.25;229416;1191;139848;-67
2021/11/26 20:14:48;;;;;;;40.80;22.30;;;;;;;1.29;79.93;97668.54;229596;1191;164565;-68
2021/11/26 20:19:53;;;;;;;45.30;26.10;;;;;;;1.28;80.06;97655.96;229329;1192;140564;-67
2021/11/26 20:25:01;;;;;;;37.90;21.10;;;;;;;1.28;80.22;97649.70;228619;1192;140240;-68
2021/11/26 20:30:13;;;;;;;35.60;23.70;;;;;;;1.25;80.21;97643.56;229859;1191;140703;-71
2021/11/26 20:35:39;;;;;;;27.70;15.80;;;;;;;1.23;80.41;97634.11;230127;1192;139764;-71
2021/11/26 20:40:45;;;;;;;33.30;20.20;;;;;;;1.27;80.06;97631.42;229532;1191;140971;-68
2021/11/26 20:45:51;;;;;;;37.40;21.50;;;;;;;1.29;80.30;97622.07;230349;1191;234796;-69
2021/11/26 20:50:57;;;;;;;30.50;18.30;;;;;;;1.26;80.43;97614.44;229518;1191;139058;-68
2021/11/26 20:56:02;;;;;;;40.80;19.30;;;;;;;1.22;80.52;97610.21;230143;1192;140922;-67
2021/11/26 21:01:07;;;;;;;36.70;22.00;;;;;;;1.22;80.20;97602.44;230843;1192;142245;-69
2021/11/26 21:06:12;;;;;;;34.90;21.30;;;;;;;1.22;80.45;97592.48;230831;1191;139416;-70
2021/11/26 21:11:17;;;;;;;39.80;21.50;;;;;;;1.20;80.38;97586.66;231029;1191;142263;-70
2021/11/26 21:16:22;;;;;;;31.10;17.10;;;;;;;1.17;80.42;97579.30;229719;1191;139646;-70
2021/11/26 21:21:26;;;;;;;30.00;19.00;;;;;;;1.17;80.33;97572.62;230538;1191;139881;-66
2021/11/26 21:26:31;;;;;;;32.80;19.00;;;;;;;1.14;80.33;97569.23;230974;1192;141601;-68
2021/11/26 21:31:36;;;;;;;26.70;15.90;;;;;;;1.12;80.83;97566.00;230596;1191;139482;-72
2021/11/26 21:36:46;;;;;;;;;;;;;;;1.08;80.53;97561.98;229719;1192;139478;-68
2021/11/26 21:41:55;;;;;;;32.80;20.30;;;;;;;1.09;80.67;97551.39;229688;1192;125692;-66
2021/11/26 21:47:03;;;;;;;21.90;15.80;;;;;;;1.07;80.62;97547.14;229208;1192;140123;-68
2021/11/26 21:52:07;;;;;;;27.80;15.40;;;;;;;1.00;80.84;97539.85;230038;1191;139328;-68
2021/11/26 21:57:11;;;;;;;25.70;12.90;;;;;;;0.91;80.70;97536.50;230136;1191;139607;-67
2021/11/26 22:02:16;;;;;;;24.00;14.10;;;;;;;0.90;80.84;97530.28;230061;1191;141852;-68
2021/11/26 22:07:22;;;;;;;27.20;17.00;;;;;;;0.90;80.75;97529.46;228767;1192;139373;-67
2021/11/26 22:12:29;;;;;;;28.30;15.60;;;;;;;0.88;81.26;97524.46;229449;1192;138979;-68
2021/11/26 22:17:36;;;;;;;25.10;13.50;;;;;;;0.83;81.36;97518.90;229013;1193;139275;-68
2021/11/26 22:22:41;;;;;;;25.30;16.00;;;;;;;0.85;81.36;97515.47;228650;1192;140319;-70
2021/11/26 22:27:47;;;;;;;18.60;12.40;;;;;;;0.82;81.50;97510.06;228602;1192;141024;-72
2021/11/26 22:32:53;;;;;;;25.70;14.20;;;;;;;0.77;81.48;97505.21;229851;1192;138953;-69
2021/11/26 22:38:00;;;;;;;21.80;14.70;;;;;;;0.77;81.41;97495.30;229815;1191;141413;-69
2021/11/26 22:43:05;;;;;;;30.50;16.60;;;;;;;0.81;81.72;97489.30;230075;1192;139512;-70
2021/11/26 22:48:09;;;;;;;26.10;16.80;;;;;;;0.83;81.68;97489.15;228550;1192;139350;-69
2021/11/26 22:53:44;;;;;;;;;;;;;;;;;;;;;
2021/11/26 22:59:18;;;;;;;27.50;15.80;;;;;;;0.83;81.54;97487.99;229360;1192;139173;-71
2021/11/26 23:04:28;;;;;;;29.90;18.90;;;;;;;0.89;81.68;97484.16;230506;1192;141116;-72
2021/11/26 23:09:34;;;;;;;30.10;17.40;;;;;;;0.91;81.61;97479.42;229735;1192;141017;-73
2021/11/26 23:14:41;;;;;;;25.10;15.30;;;;;;;0.88;81.61;97479.98;230628;1192;139069;-73
2021/11/26 23:19:46;;;;;;;33.00;18.20;;;;;;;0.85;81.58;97484.84;230569;1192;139075;-74
2021/11/26 23:24:50;;;;;;;29.30;18.10;;;;;;;0.88;81.82;97482.09;230405;1192;139882;-74
2021/11/26 23:29:54;;;;;;;26.30;15.70;;;;;;;0.96;81.91;97483.61;230690;1192;140430;-71
2021/11/26 23:34:58;;;;;;;27.60;16.60;;;;;;;0.98;82.24;97478.88;230756;1192;210686;-73
2021/11/26 23:40:29;;;;;;;;;;;;;;;;;;;;;
2021/11/26 23:45:36;;;;;;;23.90;15.10;;;;;;;0.97;81.46;97466.38;230361;1192;140494;-73
2021/11/26 23:50:42;;;;;;;24.00;14.80;;;;;;;1.00;81.64;97464.39;229089;1192;151331;-73
2021/11/26 23:55:52;;;;;;;25.50;15.10;;;;;;;0.99;81.80;97466.90;229580;1192;140495;-75
